Time;durP1;ratioP1;P1;durP2;ratioP2;P2;SDS_P1;SDS_P2;PMS_P1;PMS_P2;Temp;Humidity;BMP_temperature;BMP_pressure;BME280_temperature;BME280_humidity;BME280_pressure;Samples;Min_cycle;Max_cycle;Signal;HPM_P1;HPM_P2
2022/07/25 00:01:52;;;;;;;8.77;6.23;;;21.80;89.20;;;;;;5108348;28;20631;-87
2022/07/25 00:04:19;;;;;;;6.13;5.37;;;21.80;88.80;;;;;;5109423;28;21032;-87
2022/07/25 00:06:46;;;;;;;6.37;5.70;;;21.80;89.40;;;;;;5109226;28;20663;-87
2022/07/25 00:09:13;;;;;;;8.50;5.60;;;21.80;88.40;;;;;;5109083;28;20616;-88
2022/07/25 00:11:41;;;;;;;6.10;5.53;;;21.90;87.40;;;;;;5108667;28;20760;-87
2022/07/25 00:14:09;;;;;;;5.70;5.20;;;21.90;88.10;;;;;;5108649;28;20615;-87
2022/07/25 00:16:38;;;;;;;7.33;5.03;;;21.90;87.60;;;;;;5108636;28;20653;-87
2022/07/25 00:19:06;;;;;;;9.53;5.27;;;21.90;87.00;;;;;;5108648;28;20604;-87
2022/07/25 00:21:34;;;;;;;6.30;5.70;;;21.90;87.70;;;;;;5108942;28;20616;-87
2022/07/25 00:24:03;;;;;;;6.17;5.07;;;21.80;87.90;;;;;;5108393;28;20639;-87
2022/07/25 00:26:30;;;;;;;6.17;5.67;;;21.80;87.80;;;;;;5108312;28;20603;-87
2022/07/25 00:28:57;;;;;;;7.03;5.63;;;21.70;88.30;;;;;;5107874;28;20717;-87
2022/07/25 00:31:25;;;;;;;6.30;5.53;;;21.70;88.40;;;;;;5108390;28;20680;-86
2022/07/25 00:33:53;;;;;;;6.50;5.90;;;21.60;89.30;;;;;;5108234;28;20731;-87
2022/07/25 00:36:21;;;;;;;7.90;5.50;;;21.60;88.90;;;;;;5108737;28;20665;-87
2022/07/25 00:38:49;;;;;;;5.37;4.90;;;21.50;88.50;;;;;;5108429;28;20623;-87
2022/07/25 00:41:17;;;;;;;7.13;6.30;;;21.50;89.30;;;;;;5108394;28;20623;-87
2022/07/25 00:43:45;;;;;;;5.93;5.33;;;21.60;89.70;;;;;;5108265;28;20607;-86
2022/07/25 00:46:13;;;;;;;5.73;4.83;;;21.50;89.40;;;;;;5108825;28;20607;-87
2022/07/25 00:48:41;;;;;;;6.00;4.90;;;21.50;90.20;;;;;;5108861;28;20658;-87
2022/07/25 00:51:11;;;;;;;10.20;7.90;;;21.50;88.80;;;;;;5108186;28;21200;-87
2022/07/25 00:53:40;;;;;;;7.17;6.53;;;21.60;88.80;;;;;;5108495;28;20968;-87
2022/07/25 00:56:09;;;;;;;5.40;4.87;;;21.50;90.70;;;;;;5106481;28;20603;-87
2022/07/25 00:58:36;;;;;;;7.90;5.80;;;21.40;89.40;;;;;;5108202;28;21189;-87
2022/07/25 01:01:03;;;;;;;6.83;5.00;;;21.50;89.80;;;;;;5107888;28;21066;-86
2022/07/25 01:03:30;;;;;;;5.43;4.93;;;21.50;89.90;;;;;;5107665;28;21119;-87
2022/07/25 01:05:57;;;;;;;7.87;6.20;;;21.50;89.70;;;;;;5106864;28;21030;-87
2022/07/25 01:08:25;;;;;;;5.70;5.10;;;21.60;90.20;;;;;;5108414;28;20666;-87
2022/07/25 01:10:52;;;;;;;5.97;5.43;;;21.50;89.80;;;;;;5108014;28;21270;-88
2022/07/25 01:13:20;;;;;;;8.90;5.00;;;21.50;89.30;;;;;;5108445;28;20635;-88
2022/07/25 01:15:50;;;;;;;7.27;5.30;;;21.50;88.90;;;;;;5109758;28;20647;-87
2022/07/25 01:18:18;;;;;;;6.20;5.60;;;21.30;90.00;;;;;;5108839;28;21205;-88
2022/07/25 01:20:47;;;;;;;6.57;5.90;;;21.30;91.20;;;;;;5108612;28;20615;-87
2022/07/25 01:23:15;;;;;;;6.63;6.00;;;21.10;91.50;;;;;;5107085;28;20623;-87
2022/07/25 01:25:42;;;;;;;6.10;5.50;;;21.00;91.90;;;;;;5107969;28;20615;-87
2022/07/25 01:28:09;;;;;;;6.63;5.67;;;20.90;92.30;;;;;;5108169;28;20671;-87
2022/07/25 01:30:38;;;;;;;7.20;6.13;;;20.90;92.10;;;;;;5107799;28;20712;-87
2022/07/25 01:33:06;;;;;;;6.23;5.50;;;20.80;92.80;;;;;;5107800;28;20608;-87
2022/07/25 01:35:35;;;;;;;7.83;5.70;;;20.90;92.80;;;;;;5107162;28;21028;-87
2022/07/25 01:38:04;;;;;;;5.87;5.30;;;20.90;93.10;;;;;;5108020;28;20738;-87
2022/07/25 01:40:31;;;;;;;6.27;5.30;;;20.80;93.00;;;;;;5107696;28;20638;-87
2022/07/25 01:43:00;;;;;;;8.17;6.50;;;20.70;93.50;;;;;;5107704;28;20619;-88
2022/07/25 01:45:28;;;;;;;7.20;6.30;;;20.60;93.50;;;;;;5107626;28;20615;-87
2022/07/25 01:47:57;;;;;;;7.30;6.33;;;20.50;93.50;;;;;;5108024;28;20643;-87
2022/07/25 01:50:24;;;;;;;6.83;5.87;;;20.60;94.10;;;;;;5107511;28;20634;-86
2022/07/25 01:52:51;;;;;;;8.70;6.20;;;20.70;93.40;;;;;;5108080;28;20600;-87
2022/07/25 01:55:20;;;;;;;6.90;6.23;;;20.70;93.30;;;;;;5108308;28;20649;-87
2022/07/25 01:57:47;;;;;;;5.77;5.17;;;20.70;93.50;;;;;;5108068;28;20642;-88
2022/07/25 02:00:16;;;;;;;6.23;5.63;;;20.70;93.70;;;;;;5108864;28;20711;-87
2022/07/25 02:02:44;;;;;;;6.93;5.80;;;20.70;94.20;;;;;;5106732;28;21173;-87
2022/07/25 02:05:13;;;;;;;5.80;5.23;;;20.60;94.00;;;;;;5107532;28;20609;-86
2022/07/25 02:07:40;;;;;;;6.60;5.53;;;20.50;93.80;;;;;;5108447;28;20655;-87
2022/07/25 02:10:08;;;;;;;6.17;5.50;;;20.60;94.20;;;;;;5111685;28;20607;-86
2022/07/25 02:12:37;;;;;;;6.30;5.70;;;20.60;93.60;;;;;;5111431;28;21226;-87
2022/07/25 02:15:04;;;;;;;7.10;5.80;;;20.60;93.30;;;;;;5111576;28;20726;-87
2022/07/25 02:17:31;;;;;;;6.97;5.67;;;20.60;93.30;;;;;;5111272;28;20654;-87
2022/07/25 02:19:58;;;;;;;7.80;5.67;;;20.60;93.50;;;;;;5111732;28;20610;-87
2022/07/25 02:22:25;;;;;;;7.13;5.37;;;20.50;93.70;;;;;;5111198;28;20606;-86
2022/07/25 02:24:52;;;;;;;6.83;5.63;;;20.50;94.00;;;;;;5111212;28;21172;-87
2022/07/25 02:27:19;;;;;;;6.30;5.40;;;20.30;93.90;;;;;;5111078;28;20763;-87
2022/07/25 02:29:47;;;;;;;6.27;5.53;;;20.20;94.20;;;;;;5110665;28;20635;-87
2022/07/25 02:32:14;;;;;;;5.23;4.80;;;20.20;94.50;;;;;;5111091;28;20603;-87
2022/07/25 02:34:40;;;;;;;6.10;5.10;;;20.20;94.90;;;;;;5110917;28;21018;-87
2022/07/25 02:37:07;;;;;;;6.83;5.10;;;20.20;94.40;;;;;;5111145;28;20680;-87
2022/07/25 02:39:34;;;;;;;6.67;5.67;;;20.20;94.20;;;;;;5111086;28;20639;-87
2022/07/25 02:42:01;;;;;;;6.20;5.60;;;20.30;93.80;;;;;;5110622;28;20623;-87
2022/07/25 02:44:28;;;;;;;5.03;4.20;;;20.20;94.20;;;;;;5110425;28;21272;-87
2022/07/25 02:46:56;;;;;;;5.70;4.90;;;20.20;94.50;;;;;;5110722;28;21261;-87
2022/07/25 02:49:23;;;;;;;5.37;4.60;;;20.30;94.50;;;;;;5110920;28;20712;-87
2022/07/25 02:51:50;;;;;;;5.93;4.90;;;20.30;93.70;;;;;;5110640;28;20730;-88
2022/07/25 02:54:17;;;;;;;7.43;6.07;;;20.30;93.20;;;;;;5110742;28;21228;-86
2022/07/25 02:56:44;;;;;;;5.50;4.90;;;20.30;93.70;;;;;;5110621;28;20622;-85
2022/07/25 02:59:10;;;;;;;6.77;6.07;;;20.10;94.10;;;;;;5110276;28;20664;-86
2022/07/25 03:01:37;;;;;;;9.17;5.97;;;20.00;94.30;;;;;;5110577;28;20596;-87
2022/07/25 03:04:06;;;;;;;6.43;5.80;;;19.90;94.20;;;;;;5110636;28;20619;-87
2022/07/25 03:06:33;;;;;;;6.87;5.60;;;19.90;95.00;;;;;;5110751;28;20715;-87
2022/07/25 03:09:00;;;;;;;6.30;5.20;;;19.90;95.40;;;;;;5110756;28;20639;-87
2022/07/25 03:11:26;;;;;;;6.10;4.93;;;19.90;95.30;;;;;;5109735;28;21056;-87
2022/07/25 03:13:53;;;;;;;6.80;5.80;;;19.80;94.90;;;;;;5111411;28;20618;-87
2022/07/25 03:16:35;;;;;;;6.13;5.17;;;19.70;95.00;;;;;;5112020;28;21150;-87
2022/07/25 03:19:02;;;;;;;5.97;4.63;;;19.70;94.90;;;;;;5109613;28;20679;-87
2022/07/25 03:21:30;;;;;;;8.90;5.50;;;19.80;95.10;;;;;;5110030;28;20616;-87
2022/07/25 03:23:57;;;;;;;5.50;4.33;;;19.90;94.10;;;;;;5109200;28;20714;-86
2022/07/25 03:26:24;;;;;;;7.27;5.50;;;20.00;93.70;;;;;;5110534;28;20611;-87
2022/07/25 03:28:54;;;;;;;6.57;5.30;;;20.10;93.50;;;;;;5112633;28;20675;-87
2022/07/25 03:31:21;;;;;;;8.17;5.53;;;20.10;93.40;;;;;;5111191;28;20603;-87
2022/07/25 03:33:48;;;;;;;5.97;4.90;;;20.20;93.00;;;;;;5109545;28;20612;-86
2022/07/25 03:36:15;;;;;;;7.20;6.00;;;20.20;93.00;;;;;;5110393;28;20632;-87
2022/07/25 03:39:36;;;;;;;7.23;4.90;;;20.10;92.80;;;;;;5094162;28;21224;-88
2022/07/25 03:42:04;;;;;;;6.20;4.97;;;20.10;93.00;;;;;;5111741;28;20639;-88
2022/07/25 03:44:31;;;;;;;6.80;6.17;;;20.00;94.00;;;;;;5109455;28;21331;-87
2022/07/25 03:46:58;;;;;;;5.13;4.63;;;20.00;93.80;;;;;;5109035;28;20607;-87
2022/07/25 03:49:25;;;;;;;7.27;5.57;;;20.10;93.50;;;;;;5109439;28;20699;-87
2022/07/25 03:51:52;;;;;;;7.87;6.60;;;20.10;93.90;;;;;;5109293;28;20635;-87
2022/07/25 03:54:20;;;;;;;7.70;6.20;;;20.10;93.80;;;;;;5109665;28;20672;-88
2022/07/25 03:56:48;;;;;;;6.13;5.40;;;20.10;94.70;;;;;;5109531;28;20612;-87
2022/07/25 03:59:17;;;;;;;8.33;5.03;;;20.10;93.70;;;;;;5108982;28;20623;-87
2022/07/25 04:01:45;;;;;;;5.77;4.80;;;20.10;93.70;;;;;;5109805;28;20627;-87
2022/07/25 04:04:12;;;;;;;5.90;5.40;;;20.20;94.40;;;;;;5108965;28;20647;-87
2022/07/25 04:06:40;;;;;;;8.33;6.03;;;20.10;93.70;;;;;;5108921;28;20604;-87
2022/07/25 04:09:08;;;;;;;5.97;5.40;;;20.20;93.60;;;;;;5109078;28;20786;-87
2022/07/25 04:11:37;;;;;;;6.67;5.93;;;20.20;93.70;;;;;;5108814;28;21319;-87
2022/07/25 04:14:04;;;;;;;7.13;6.27;;;20.20;93.60;;;;;;5108072;28;21246;-87
2022/07/25 04:16:31;;;;;;;6.20;4.30;;;20.20;93.60;;;;;;5108826;28;20615;-87
2022/07/25 04:18:58;;;;;;;6.93;5.90;;;20.30;93.50;;;;;;5109268;28;20612;-87
2022/07/25 04:21:25;;;;;;;9.27;7.07;;;20.30;93.50;;;;;;5108132;28;20620;-86
2022/07/25 04:23:53;;;;;;;7.73;6.17;;;20.30;93.80;;;;;;5108536;28;20639;-87
2022/07/25 04:26:20;;;;;;;5.67;5.07;;;20.30;93.30;;;;;;5108636;28;21378;-87
2022/07/25 04:28:48;;;;;;;6.83;6.00;;;20.30;93.60;;;;;;5109445;28;20678;-86
2022/07/25 04:31:16;;;;;;;5.80;5.23;;;20.30;93.80;;;;;;5110243;28;20608;-87
2022/07/25 04:33:43;;;;;;;5.60;4.87;;;20.30;93.60;;;;;;5108473;28;20620;-87
2022/07/25 04:36:10;;;;;;;5.67;5.10;;;20.30;93.80;;;;;;5108612;28;21172;-86
2022/07/25 04:38:37;;;;;;;6.90;6.13;;;20.40;93.50;;;;;;5108962;27;21093;-86
2022/07/25 04:41:05;;;;;;;8.20;5.80;;;20.50;93.60;;;;;;5107850;28;20631;-87
2022/07/25 04:43:31;;;;;;;5.33;4.83;;;20.50;94.30;;;;;;5108355;28;20655;-87
2022/07/25 04:46:00;;;;;;;6.30;5.33;;;20.40;94.00;;;;;;5108910;28;20661;-87
2022/07/25 04:48:27;;;;;;;5.80;5.20;;;20.50;94.30;;;;;;5108419;28;20652;-88
2022/07/25 04:50:54;;;;;;;7.23;6.00;;;20.40;95.20;;;;;;5108701;28;20755;-86
2022/07/25 04:53:20;;;;;;;6.77;5.43;;;20.20;95.00;;;;;;5108397;28;20616;-86
2022/07/25 04:55:47;;;;;;;5.00;4.53;;;20.30;94.80;;;;;;5108071;28;20607;-86
2022/07/25 04:58:14;;;;;;;7.63;5.67;;;20.30;94.50;;;;;;5108691;28;20631;-87
2022/07/25 05:00:41;;;;;;;7.10;5.53;;;20.40;94.50;;;;;;5102802;28;20712;-86
2022/07/25 05:03:10;;;;;;;7.30;6.57;;;20.60;94.20;;;;;;5101262;28;20620;-86
2022/07/25 05:05:37;;;;;;;7.47;5.97;;;20.70;93.80;;;;;;5108288;28;20663;-87
2022/07/25 05:08:06;;;;;;;6.10;5.00;;;20.80;94.10;;;;;;5107944;28;21165;-87
2022/07/25 05:10:47;;;;;;;7.67;5.60;;;20.90;93.80;;;;;;5104747;28;20630;-89
2022/07/25 05:13:34;;;;;;;6.90;5.10;;;20.90;93.80;;;;;;5104130;28;20634;-88
2022/07/25 05:16:09;;;;;;;6.13;4.93;;;21.00;94.20;;;;;;5108516;28;20631;-87
2022/07/25 05:19:16;;;;;;;6.10;5.13;;;21.10;93.80;;;;;;5106757;28;20643;-88
2022/07/25 05:21:53;;;;;;;5.60;4.57;;;21.30;93.40;;;;;;5106772;28;20635;-88
2022/07/25 05:24:27;;;;;;;6.87;5.90;;;21.30;93.20;;;;;;5107345;28;20601;-87
2022/07/25 05:27:00;;;;;;;6.07;5.47;;;21.60;91.90;;;;;;5106959;28;20608;-87
2022/07/25 05:29:30;;;;;;;5.83;5.23;;;21.30;91.50;;;;;;5107996;28;20689;-87
2022/07/25 05:32:04;;;;;;;7.90;5.30;;;21.80;91.20;;;;;;5109354;28;20723;-87
2022/07/25 05:34:36;;;;;;;6.83;5.83;;;21.80;90.70;;;;;;5094015;28;20673;-86
2022/07/25 05:37:03;;;;;;;5.90;5.40;;;21.90;90.50;;;;;;5096776;28;20621;-86
2022/07/25 05:39:32;;;;;;;5.93;5.33;;;22.00;90.80;;;;;;5106877;28;20628;-87
2022/07/25 05:42:06;;;;;;;7.10;5.67;;;22.10;90.40;;;;;;5092984;28;20620;-85
2022/07/25 05:44:34;;;;;;;5.87;5.17;;;22.20;89.90;;;;;;5098956;28;21262;-87
2022/07/25 05:47:02;;;;;;;5.90;5.30;;;22.30;89.30;;;;;;5112685;28;21193;-85
2022/07/25 05:49:39;;;;;;;5.90;5.30;;;22.40;90.10;;;;;;5091610;28;20695;-87
2022/07/25 05:52:22;;;;;;;6.63;5.00;;;22.50;88.20;;;;;;5099577;28;20721;-84
2022/07/25 05:55:00;;;;;;;5.43;4.97;;;22.60;88.20;;;;;;5111416;28;20698;-86
2022/07/25 05:57:28;;;;;;;6.60;5.77;;;22.70;87.80;;;;;;5116117;28;20619;-87
2022/07/25 05:59:55;;;;;;;5.77;5.27;;;22.80;87.00;;;;;;5111471;28;21253;-86
2022/07/25 06:02:25;;;;;;;7.63;5.43;;;22.90;86.70;;;;;;5104242;28;21189;-86
2022/07/25 06:04:53;;;;;;;5.97;5.10;;;23.00;85.50;;;;;;5110857;28;20647;-86
2022/07/25 06:07:20;;;;;;;9.10;5.83;;;23.10;85.10;;;;;;5108702;28;20676;-87
2022/07/25 06:09:47;;;;;;;7.03;5.50;;;23.10;84.50;;;;;;5111610;28;20682;-88
2022/07/25 06:12:14;;;;;;;5.60;5.10;;;23.20;85.70;;;;;;5111340;28;20726;-87
2022/07/25 06:14:41;;;;;;;4.87;4.40;;;23.30;85.40;;;;;;5109916;28;20614;-86
2022/07/25 06:17:08;;;;;;;6.27;5.60;;;23.40;86.20;;;;;;5111844;27;20616;-85
2022/07/25 06:19:34;;;;;;;5.83;5.23;;;23.40;85.60;;;;;;5111943;28;21048;-85
2022/07/25 06:22:03;;;;;;;5.00;4.50;;;23.60;83.70;;;;;;5111720;28;20651;-87
2022/07/25 06:24:30;;;;;;;6.07;5.13;;;23.70;84.50;;;;;;5110988;28;20615;-87
2022/07/25 06:26:57;;;;;;;6.47;5.03;;;23.70;82.80;;;;;;5091227;28;20624;-86
2022/07/25 06:29:24;;;;;;;5.67;5.17;;;23.80;82.50;;;;;;5091006;28;20652;-87
2022/07/25 06:31:51;;;;;;;6.90;6.17;;;23.90;81.20;;;;;;5091081;28;20624;-86
2022/07/25 06:34:18;;;;;;;5.40;4.90;;;24.00;80.90;;;;;;5103526;28;20951;-87
2022/07/25 06:36:44;;;;;;;5.90;5.03;;;24.00;80.70;;;;;;5111003;28;20612;-86
2022/07/25 06:39:13;;;;;;;6.30;4.63;;;24.10;80.30;;;;;;5109604;28;20651;-86
2022/07/25 06:41:40;;;;;;;6.30;5.10;;;24.20;80.20;;;;;;5111049;28;20600;-86
2022/07/25 06:44:06;;;;;;;4.97;4.40;;;24.30;80.50;;;;;;5108738;28;20616;-86
2022/07/25 06:46:33;;;;;;;6.20;5.07;;;24.30;79.70;;;;;;5111083;28;21171;-87
2022/07/25 06:49:00;;;;;;;5.10;4.60;;;24.40;80.20;;;;;;5110642;28;20643;-87
2022/07/25 06:51:27;;;;;;;6.37;5.47;;;24.40;78.90;;;;;;5106483;28;20678;-87
2022/07/25 06:53:55;;;;;;;5.73;5.03;;;24.50;79.20;;;;;;5108140;28;21022;-87
2022/07/25 06:56:23;;;;;;;5.93;5.33;;;24.70;79.60;;;;;;5112095;28;20688;-86
2022/07/25 06:58:52;;;;;;;6.67;5.50;;;24.70;79.40;;;;;;5110691;28;20672;-86
2022/07/25 07:01:19;;;;;;;5.03;4.53;;;24.80;77.00;;;;;;5111222;28;20615;-86
2022/07/25 07:03:47;;;;;;;6.03;5.53;;;24.80;77.20;;;;;;5110326;28;20681;-88
2022/07/25 07:06:14;;;;;;;7.87;4.97;;;25.00;75.90;;;;;;5110780;28;20600;-86
2022/07/25 07:08:41;;;;;;;5.53;4.80;;;25.10;76.60;;;;;;5110910;28;20600;-86
2022/07/25 07:11:08;;;;;;;5.23;4.73;;;25.20;76.60;;;;;;5110543;28;20640;-87
2022/07/25 07:13:40;;;;;;;7.17;5.00;;;25.20;76.20;;;;;;5110514;28;20611;-87
2022/07/25 07:16:08;;;;;;;6.80;6.00;;;25.30;77.30;;;;;;5110982;28;20612;-88
2022/07/25 07:18:35;;;;;;;6.30;4.90;;;25.50;75.90;;;;;;5110560;27;20599;-87
2022/07/25 07:21:02;;;;;;;6.37;5.73;;;25.70;75.40;;;;;;5110542;28;20655;-87
2022/07/25 07:23:29;;;;;;;7.60;6.00;;;25.80;75.10;;;;;;5110045;28;20615;-87
2022/07/25 07:25:56;;;;;;;6.40;5.70;;;26.00;74.50;;;;;;5110783;28;20608;-88
2022/07/25 07:28:23;;;;;;;6.17;5.10;;;26.10;74.80;;;;;;5110600;28;20631;-86
2022/07/25 07:30:52;;;;;;;5.90;5.40;;;26.10;74.20;;;;;;5109914;28;21084;-86
2022/07/25 07:33:18;;;;;;;5.97;5.27;;;26.30;74.70;;;;;;5110585;28;20620;-86
2022/07/25 07:35:45;;;;;;;6.33;5.33;;;26.40;74.60;;;;;;5089796;28;20624;-86
2022/07/25 07:38:12;;;;;;;6.37;5.67;;;26.50;75.00;;;;;;5089103;28;20658;-87
2022/07/25 07:40:39;;;;;;;5.30;4.80;;;26.60;75.20;;;;;;5093887;28;20639;-87
2022/07/25 07:43:06;;;;;;;5.50;5.00;;;26.60;74.60;;;;;;5109916;28;20603;-85
2022/07/25 07:45:34;;;;;;;5.73;5.20;;;26.70;75.20;;;;;;5109659;28;20623;-86
2022/07/25 07:48:02;;;;;;;7.43;5.97;;;26.80;74.50;;;;;;5109950;28;20620;-85
2022/07/25 07:50:29;;;;;;;6.40;5.80;;;27.00;75.20;;;;;;5109047;28;20736;-89
2022/07/25 07:52:58;;;;;;;6.73;5.80;;;27.10;74.80;;;;;;5108755;28;20624;-87
2022/07/25 07:55:44;;;;;;;6.40;5.80;;;27.30;74.00;;;;;;5108565;28;20628;-89
2022/07/25 07:58:11;;;;;;;5.90;5.30;;;27.50;73.60;;;;;;5108260;28;20611;-88
2022/07/25 08:00:39;;;;;;;5.67;5.10;;;27.70;73.00;;;;;;5109443;28;20901;-87
2022/07/25 08:03:08;;;;;;;6.87;5.50;;;27.70;74.10;;;;;;5103726;28;20681;-88
2022/07/25 08:05:38;;;;;;;5.40;4.90;;;27.80;72.60;;;;;;5106997;28;20608;-87
2022/07/25 08:08:06;;;;;;;6.40;5.80;;;27.80;71.80;;;;;;5110201;28;20672;-89
2022/07/25 08:10:35;;;;;;;7.10;6.17;;;28.00;71.70;;;;;;5110508;28;21263;-87
2022/07/25 08:13:11;;;;;;;5.73;5.13;;;28.10;71.90;;;;;;5110518;28;20628;-86
2022/07/25 08:15:42;;;;;;;5.60;5.10;;;28.20;71.00;;;;;;5104599;28;20631;-86
2022/07/25 08:18:14;;;;;;;5.43;4.90;;;28.30;71.30;;;;;;5108456;28;20684;-86
2022/07/25 08:20:41;;;;;;;5.37;4.87;;;28.30;70.20;;;;;;5102391;28;20650;-86
2022/07/25 08:23:09;;;;;;;6.30;5.20;;;28.40;68.80;;;;;;5088337;28;21288;-86
2022/07/25 08:25:36;;;;;;;5.77;5.20;;;28.50;68.60;;;;;;5105867;28;20619;-87
2022/07/25 08:28:05;;;;;;;8.00;6.43;;;28.60;67.00;;;;;;5108174;28;20627;-86
2022/07/25 08:30:32;;;;;;;5.60;5.00;;;28.60;66.00;;;;;;5108890;28;20667;-87
2022/07/25 08:33:02;;;;;;;5.93;5.00;;;28.60;66.90;;;;;;5108793;28;20705;-86
2022/07/25 08:35:31;;;;;;;6.13;5.23;;;28.80;65.60;;;;;;5092201;28;20620;-87
2022/07/25 08:37:59;;;;;;;6.37;5.00;;;28.90;65.20;;;;;;5089119;28;20682;-87
2022/07/25 08:40:50;;;;;;;6.37;5.87;;;29.00;63.30;;;;;;5090932;28;20709;-88
2022/07/25 08:43:18;;;;;;;5.63;4.70;;;29.30;63.50;;;;;;5107442;28;20619;-85
2022/07/25 08:45:48;;;;;;;6.17;5.60;;;29.40;64.50;;;;;;5104726;28;21165;-85
2022/07/25 08:48:18;;;;;;;6.03;5.43;;;29.50;62.70;;;;;;5108647;28;20628;-85
2022/07/25 08:50:48;;;;;;;8.07;5.27;;;29.60;62.20;;;;;;5108152;28;20702;-85
2022/07/25 08:53:16;;;;;;;5.30;4.80;;;29.70;59.60;;;;;;5107290;28;20624;-85
2022/07/25 08:55:44;;;;;;;6.20;5.60;;;29.90;59.70;;;;;;5099531;28;20634;-88
2022/07/25 08:58:12;;;;;;;6.10;5.50;;;30.10;59.80;;;;;;5107167;28;21318;-87
2022/07/25 09:00:39;;;;;;;5.90;4.90;;;30.10;59.70;;;;;;5107795;28;20646;-87
2022/07/25 09:03:06;;;;;;;7.27;5.80;;;30.20;59.60;;;;;;5107752;28;20627;-87
2022/07/25 09:05:34;;;;;;;5.33;4.47;;;30.10;59.40;;;;;;5088936;28;20629;-87
2022/07/25 09:08:09;;;;;;;6.13;4.73;;;30.10;58.70;;;;;;5087927;28;20601;-87
2022/07/25 09:10:38;;;;;;;5.00;4.60;;;30.10;57.30;;;;;;5087804;28;20790;-87
2022/07/25 09:13:09;;;;;;;5.67;5.17;;;30.10;58.20;;;;;;5097926;28;20631;-85
2022/07/25 09:15:38;;;;;;;5.40;4.70;;;30.20;58.10;;;;;;5095525;28;20640;-85
2022/07/25 09:18:07;;;;;;;6.20;5.30;;;30.30;57.60;;;;;;5105802;28;20639;-86
2022/07/25 09:20:39;;;;;;;5.67;5.17;;;30.40;57.00;;;;;;5108398;28;20619;-85
2022/07/25 09:23:08;;;;;;;5.60;5.10;;;30.50;56.40;;;;;;5108206;28;20722;-85
2022/07/25 09:25:37;;;;;;;5.20;4.70;;;30.60;55.60;;;;;;5108217;28;20628;-85
2022/07/25 09:28:15;;;;;;;5.17;4.73;;;30.80;56.50;;;;;;5108089;28;20718;-85
2022/07/25 09:30:54;;;;;;;6.10;5.53;;;30.90;57.50;;;;;;5106098;28;20702;-85
2022/07/25 09:33:22;;;;;;;6.10;4.93;;;31.00;55.90;;;;;;5105071;28;20720;-85
2022/07/25 09:35:49;;;;;;;4.63;4.00;;;31.00;54.90;;;;;;5099522;28;20937;-85
2022/07/25 09:38:20;;;;;;;5.03;4.37;;;31.00;56.10;;;;;;5106850;28;20627;-87
2022/07/25 09:40:55;;;;;;;4.33;4.03;;;31.10;56.50;;;;;;5106655;28;20643;-88
2022/07/25 09:43:22;;;;;;;5.17;4.67;;;31.20;54.50;;;;;;5107418;28;20748;-88
2022/07/25 09:46:12;;;;;;;5.70;5.20;;;31.40;55.10;;;;;;5104982;28;20608;-89
2022/07/25 09:48:57;;;;;;;6.27;5.20;;;31.50;54.80;;;;;;5107373;28;20628;-90
2022/07/25 09:51:25;;;;;;;5.50;5.00;;;31.60;54.50;;;;;;5108140;28;20678;-90
2022/07/25 09:53:54;;;;;;;6.50;5.80;;;31.60;55.40;;;;;;5106940;28;20866;-88
2022/07/25 09:56:20;;;;;;;5.17;4.73;;;31.80;54.60;;;;;;5107166;28;20637;-87
2022/07/25 09:58:48;;;;;;;6.43;5.23;;;32.00;54.00;;;;;;5106859;28;20681;-88
2022/07/25 10:01:22;;;;;;;6.87;6.20;;;32.00;52.70;;;;;;5107483;28;21395;-87
2022/07/25 10:03:54;;;;;;;6.83;6.17;;;32.10;53.70;;;;;;5103889;28;20623;-88
2022/07/25 10:06:24;;;;;;;5.37;4.57;;;32.30;54.00;;;;;;5087654;28;20746;-88
2022/07/25 10:08:53;;;;;;;6.03;5.53;;;32.30;53.80;;;;;;5087790;28;20628;-88
2022/07/25 10:11:21;;;;;;;5.37;4.90;;;32.30;54.50;;;;;;5087787;28;20718;-87
2022/07/25 10:13:49;;;;;;;7.33;6.17;;;32.20;54.60;;;;;;5088817;28;20607;-88
2022/07/25 10:16:27;;;;;;;7.83;5.47;;;32.30;53.00;;;;;;5108136;28;20623;-87
2022/07/25 10:18:58;;;;;;;6.57;5.97;;;32.40;53.20;;;;;;5108310;28;20612;-87
2022/07/25 10:21:28;;;;;;;5.27;4.77;;;32.40;52.90;;;;;;5108601;28;20624;-86
2022/07/25 10:24:04;;;;;;;6.40;5.80;;;32.60;51.60;;;;;;5101403;28;20617;-87
2022/07/25 10:26:32;;;;;;;6.60;6.00;;;32.80;51.80;;;;;;5088266;28;21101;-86
2022/07/25 10:29:00;;;;;;;5.10;4.70;;;32.90;51.40;;;;;;5090728;28;20629;-89
2022/07/25 10:31:37;;;;;;;5.83;5.20;;;33.00;51.10;;;;;;5091970;28;20695;-88
2022/07/25 10:34:06;;;;;;;4.33;3.93;;;33.20;51.80;;;;;;5097428;28;20624;-88
2022/07/25 10:36:43;;;;;;;4.90;4.20;;;33.30;50.80;;;;;;5091249;28;20655;-86
2022/07/25 10:39:13;;;;;;;3.93;3.63;;;33.50;49.10;;;;;;5091116;28;21192;-87
2022/07/25 10:41:41;;;;;;;3.77;3.47;;;33.30;48.80;;;;;;5102601;28;21237;-88
2022/07/25 10:44:13;;;;;;;3.93;3.63;;;33.20;50.20;;;;;;5106659;28;20709;-88
2022/07/25 10:46:40;;;;;;;3.37;3.07;;;33.30;50.00;;;;;;5092262;28;20634;-87
2022/07/25 10:49:08;;;;;;;3.50;3.20;;;33.30;47.30;;;;;;5091816;28;20613;-87
2022/07/25 10:51:36;;;;;;;3.23;2.93;;;33.50;48.10;;;;;;5104892;28;20663;-87
2022/07/25 10:54:14;;;;;;;3.30;3.00;;;33.80;48.60;;;;;;5106288;28;20644;-88
2022/07/25 10:56:52;;;;;;;3.40;3.10;;;33.80;46.50;;;;;;5105225;28;20607;-88
2022/07/25 10:59:30;;;;;;;2.80;2.60;;;33.90;45.80;;;;;;5111267;28;20611;-88
2022/07/25 11:02:16;;;;;;;3.43;2.63;;;34.10;46.50;;;;;;5110286;28;20612;-90
2022/07/25 11:04:44;;;;;;;3.10;2.80;;;34.40;45.20;;;;;;5107020;28;20647;-89
2022/07/25 11:07:13;;;;;;;2.60;2.40;;;34.50;45.80;;;;;;5110243;28;20738;-88
2022/07/25 11:09:43;;;;;;;2.77;2.57;;;34.70;44.80;;;;;;5108044;28;20638;-88
2022/07/25 11:12:18;;;;;;;3.30;3.00;;;35.10;46.60;;;;;;5102414;28;20655;-90
2022/07/25 11:15:14;;;;;;;2.53;2.33;;;35.20;42.80;;;;;;5109391;28;20611;-90
2022/07/25 11:18:00;;;;;;;2.73;2.53;;;35.30;44.10;;;;;;5111515;28;20628;-89
2022/07/25 11:20:28;;;;;;;3.83;3.13;;;35.50;41.90;;;;;;5106091;28;20626;-88
2022/07/25 11:22:56;;;;;;;3.00;2.80;;;35.80;42.60;;;;;;5108678;28;20708;-88
2022/07/25 11:25:24;;;;;;;3.03;2.83;;;35.80;42.10;;;;;;5093805;28;20632;-88
2022/07/25 11:27:56;;;;;;;3.17;2.90;;;36.00;43.00;;;;;;5090916;28;20608;-88
2022/07/25 11:30:24;;;;;;;3.37;3.07;;;36.40;41.40;;;;;;5090818;28;21194;-88
2022/07/25 11:32:54;;;;;;;3.10;2.90;;;36.60;41.70;;;;;;5090771;28;20996;-88
2022/07/25 11:35:24;;;;;;;3.43;3.13;;;36.80;42.10;;;;;;5112360;28;20650;-87
2022/07/25 11:37:51;;;;;;;2.60;2.40;;;37.10;41.40;;;;;;5110204;28;21372;-88
2022/07/25 11:40:19;;;;;;;3.30;3.00;;;37.10;39.50;;;;;;5109350;28;20623;-88
2022/07/25 11:42:49;;;;;;;3.00;2.70;;;37.50;40.20;;;;;;5110834;28;20681;-89
2022/07/25 11:45:20;;;;;;;2.57;2.37;;;37.70;39.00;;;;;;5110573;28;20615;-88
2022/07/25 11:47:49;;;;;;;2.57;2.37;;;37.60;39.50;;;;;;5110946;28;20616;-87
2022/07/25 11:50:16;;;;;;;3.07;2.83;;;37.70;39.80;;;;;;5109859;28;20748;-88
2022/07/25 11:52:44;;;;;;;2.80;2.60;;;37.90;39.10;;;;;;5111150;28;21335;-89
2022/07/25 11:55:16;;;;;;;2.93;2.73;;;38.10;36.60;;;;;;5110333;28;20612;-88
2022/07/25 11:57:46;;;;;;;3.30;3.00;;;38.70;38.30;;;;;;5110742;28;21250;-87
2022/07/25 12:00:19;;;;;;;3.20;3.00;;;38.70;38.00;;;;;;5110836;28;20611;-87
2022/07/25 12:02:47;;;;;;;3.37;3.13;;;38.80;36.10;;;;;;5108514;28;20631;-88
2022/07/25 12:05:17;;;;;;;2.80;2.60;;;38.70;36.50;;;;;;5110275;28;20633;-87
2022/07/25 12:07:45;;;;;;;2.60;2.40;;;39.30;35.80;;;;;;5109687;28;20684;-88
2022/07/25 12:10:15;;;;;;;2.70;2.50;;;38.80;35.70;;;;;;5109763;28;20612;-88
2022/07/25 12:12:51;;;;;;;3.00;2.80;;;38.20;36.30;;;;;;5109847;28;20615;-87
2022/07/25 12:15:22;;;;;;;2.70;2.50;;;38.30;35.90;;;;;;5109721;28;20640;-87
2022/07/25 12:17:50;;;;;;;3.57;3.27;;;37.70;36.30;;;;;;5109147;28;20623;-88
2022/07/25 12:20:19;;;;;;;2.80;2.60;;;37.60;39.30;;;;;;5110395;28;20655;-87
2022/07/25 12:22:47;;;;;;;2.77;2.57;;;36.90;40.40;;;;;;5109382;28;20625;-87
2022/07/25 12:25:14;;;;;;;2.97;2.77;;;36.80;40.60;;;;;;5110039;28;20623;-87
2022/07/25 12:27:42;;;;;;;3.97;3.27;;;37.10;40.50;;;;;;5109080;28;21425;-87
2022/07/25 12:30:10;;;;;;;3.07;2.77;;;37.10;38.00;;;;;;5109804;28;20948;-88
2022/07/25 12:32:39;;;;;;;3.10;2.90;;;37.90;38.90;;;;;;5109145;28;20699;-87
2022/07/25 12:35:08;;;;;;;3.20;3.00;;;39.60;37.90;;;;;;5089546;28;20646;-87
2022/07/25 12:37:36;;;;;;;3.30;3.00;;;40.30;36.30;;;;;;5100633;28;20619;-88
2022/07/25 12:40:03;;;;;;;3.90;3.30;;;40.60;35.80;;;;;;5107280;28;20201;-87
2022/07/25 12:42:31;;;;;;;3.03;2.83;;;39.00;36.10;;;;;;5107376;28;20274;-87
2022/07/25 12:44:58;;;;;;;3.40;3.20;;;38.50;36.10;;;;;;5109096;28;20618;-88
2022/07/25 12:47:26;;;;;;;3.07;2.87;;;37.90;36.20;;;;;;5108460;28;20738;-87
2022/07/25 12:49:55;;;;;;;3.80;3.50;;;37.10;37.30;;;;;;5104809;28;20681;-87
2022/07/25 12:52:22;;;;;;;2.83;2.63;;;36.80;39.10;;;;;;5106518;28;20663;-87
2022/07/25 12:54:49;;;;;;;2.83;2.63;;;36.10;38.00;;;;;;5107147;28;20616;-87
2022/07/25 12:57:16;;;;;;;2.93;2.67;;;35.70;37.90;;;;;;5108542;28;20727;-87
2022/07/25 12:59:43;;;;;;;3.97;3.67;;;35.50;40.00;;;;;;5108808;28;20959;-87